sensor_id;sensor_type;location;lat;lon;timestamp;P1;durP1;ratioP1;P2;durP2;ratioP2
11054;SDS011;5580;50.106;8.702;2023-02-15T00:01:31;42.43;;;23.60;;
11054;SDS011;5580;50.106;8.702;2023-02-15T00:03:57;43.03;;;22.83;;
11054;SDS011;5580;50.106;8.702;2023-02-15T00:06:23;36.57;;;21.13;;
11054;SDS011;5580;50.106;8.702;2023-02-15T00:08:49;39.40;;;22.30;;
11054;SDS011;5580;50.106;8.702;2023-02-15T00:11:16;38.93;;;22.47;;
11054;SDS011;5580;50.106;8.702;2023-02-15T00:14:10;38.13;;;22.20;;
11054;SDS011;5580;50.106;8.702;2023-02-15T00:16:42;41.37;;;23.97;;
11054;SDS011;5580;50.106;8.702;2023-02-15T00:19:09;37.93;;;22.33;;
11054;SDS011;5580;50.106;8.702;2023-02-15T00:21:37;41.23;;;23.10;;
11054;SDS011;5580;50.106;8.702;2023-02-15T00:24:04;40.87;;;23.00;;
11054;SDS011;5580;50.106;8.702;2023-02-15T00:26:30;41.90;;;23.20;;
11054;SDS011;5580;50.106;8.702;2023-02-15T00:28:56;42.23;;;22.73;;
11054;SDS011;5580;50.106;8.702;2023-02-15T00:31:23;40.87;;;22.37;;
11054;SDS011;5580;50.106;8.702;2023-02-15T00:33:49;41.73;;;23.87;;
11054;SDS011;5580;50.106;8.702;2023-02-15T00:36:15;41.23;;;22.73;;
11054;SDS011;5580;50.106;8.702;2023-02-15T00:38:40;40.23;;;22.40;;
11054;SDS011;5580;50.106;8.702;2023-02-15T00:41:06;41.97;;;23.33;;
11054;SDS011;5580;50.106;8.702;2023-02-15T00:43:33;41.90;;;22.97;;
11054;SDS011;5580;50.106;8.702;2023-02-15T00:46:00;45.87;;;24.80;;
11054;SDS011;5580;50.106;8.702;2023-02-15T00:48:26;44.13;;;23.57;;
11054;SDS011;5580;50.106;8.702;2023-02-15T00:50:53;45.73;;;24.20;;
11054;SDS011;5580;50.106;8.702;2023-02-15T00:53:20;45.40;;;23.83;;
11054;SDS011;5580;50.106;8.702;2023-02-15T00:55:46;42.27;;;23.77;;
11054;SDS011;5580;50.106;8.702;2023-02-15T00:58:13;43.50;;;24.53;;
11054;SDS011;5580;50.106;8.702;2023-02-15T01:00:39;50.13;;;25.77;;
11054;SDS011;5580;50.106;8.702;2023-02-15T01:03:07;45.20;;;25.63;;
11054;SDS011;5580;50.106;8.702;2023-02-15T01:05:35;47.60;;;25.03;;
11054;SDS011;5580;50.106;8.702;2023-02-15T01:08:01;46.87;;;24.20;;
11054;SDS011;5580;50.106;8.702;2023-02-15T01:10:27;43.70;;;23.67;;
11054;SDS011;5580;50.106;8.702;2023-02-15T01:12:53;44.57;;;23.63;;
11054;SDS011;5580;50.106;8.702;2023-02-15T01:15:20;43.53;;;23.73;;
11054;SDS011;5580;50.106;8.702;2023-02-15T01:17:45;42.77;;;23.77;;
11054;SDS011;5580;50.106;8.702;2023-02-15T01:20:20;44.17;;;23.97;;
11054;SDS011;5580;50.106;8.702;2023-02-15T01:22:47;44.27;;;24.73;;
11054;SDS011;5580;50.106;8.702;2023-02-15T01:25:15;44.97;;;25.63;;
11054;SDS011;5580;50.106;8.702;2023-02-15T01:27:44;45.37;;;24.07;;
11054;SDS011;5580;50.106;8.702;2023-02-15T01:30:10;48.13;;;25.97;;
11054;SDS011;5580;50.106;8.702;2023-02-15T01:32:36;46.37;;;25.40;;
11054;SDS011;5580;50.106;8.702;2023-02-15T01:35:02;46.47;;;25.83;;
11054;SDS011;5580;50.106;8.702;2023-02-15T01:37:29;44.63;;;25.27;;
11054;SDS011;5580;50.106;8.702;2023-02-15T01:39:56;46.57;;;25.13;;
11054;SDS011;5580;50.106;8.702;2023-02-15T01:42:23;48.07;;;25.10;;
11054;SDS011;5580;50.106;8.702;2023-02-15T01:44:51;48.17;;;26.07;;
11054;SDS011;5580;50.106;8.702;2023-02-15T01:48:02;45.33;;;24.13;;
11054;SDS011;5580;50.106;8.702;2023-02-15T01:50:32;48.93;;;24.77;;
11054;SDS011;5580;50.106;8.702;2023-02-15T01:53:13;44.27;;;23.63;;
11054;SDS011;5580;50.106;8.702;2023-02-15T01:55:48;45.37;;;24.60;;
11054;SDS011;5580;50.106;8.702;2023-02-15T01:58:18;48.57;;;25.67;;
11054;SDS011;5580;50.106;8.702;2023-02-15T02:00:44;48.10;;;24.47;;
11054;SDS011;5580;50.106;8.702;2023-02-15T02:03:10;45.83;;;24.00;;
11054;SDS011;5580;50.106;8.702;2023-02-15T02:05:36;43.63;;;23.90;;
11054;SDS011;5580;50.106;8.702;2023-02-15T02:08:03;51.30;;;26.53;;
11054;SDS011;5580;50.106;8.702;2023-02-15T02:10:29;48.63;;;26.30;;
11054;SDS011;5580;50.106;8.702;2023-02-15T02:12:56;48.00;;;25.40;;
11054;SDS011;5580;50.106;8.702;2023-02-15T02:24:17;47.67;;;24.77;;
11054;SDS011;5580;50.106;8.702;2023-02-15T02:29:47;46.90;;;24.97;;
11054;SDS011;5580;50.106;8.702;2023-02-15T02:34:56;44.30;;;24.00;;
11054;SDS011;5580;50.106;8.702;2023-02-15T02:40:49;45.30;;;25.57;;
11054;SDS011;5580;50.106;8.702;2023-02-15T02:43:37;48.37;;;24.80;;
11054;SDS011;5580;50.106;8.702;2023-02-15T02:46:11;49.80;;;25.30;;
11054;SDS011;5580;50.106;8.702;2023-02-15T02:48:42;49.13;;;26.17;;
11054;SDS011;5580;50.106;8.702;2023-02-15T02:51:08;45.43;;;25.20;;
11054;SDS011;5580;50.106;8.702;2023-02-15T02:53:34;49.33;;;26.03;;
11054;SDS011;5580;50.106;8.702;2023-02-15T02:56:05;50.77;;;26.43;;
11054;SDS011;5580;50.106;8.702;2023-02-15T02:58:39;47.60;;;25.67;;
11054;SDS011;5580;50.106;8.702;2023-02-15T03:01:13;48.97;;;24.17;;
11054;SDS011;5580;50.106;8.702;2023-02-15T03:06:16;50.43;;;26.10;;
11054;SDS011;5580;50.106;8.702;2023-02-15T03:08:47;50.13;;;27.20;;
11054;SDS011;5580;50.106;8.702;2023-02-15T03:11:16;55.10;;;26.87;;
11054;SDS011;5580;50.106;8.702;2023-02-15T03:13:42;52.23;;;27.57;;
11054;SDS011;5580;50.106;8.702;2023-02-15T03:16:10;52.77;;;28.00;;
11054;SDS011;5580;50.106;8.702;2023-02-15T03:18:56;52.90;;;26.77;;
11054;SDS011;5580;50.106;8.702;2023-02-15T03:21:34;53.30;;;27.10;;
11054;SDS011;5580;50.106;8.702;2023-02-15T03:24:09;50.70;;;26.57;;
11054;SDS011;5580;50.106;8.702;2023-02-15T03:26:38;56.60;;;27.73;;
11054;SDS011;5580;50.106;8.702;2023-02-15T03:29:05;50.63;;;28.00;;
11054;SDS011;5580;50.106;8.702;2023-02-15T03:31:33;53.80;;;27.17;;
11054;SDS011;5580;50.106;8.702;2023-02-15T03:34:06;56.27;;;28.47;;
11054;SDS011;5580;50.106;8.702;2023-02-15T03:42:13;50.37;;;26.13;;
11054;SDS011;5580;50.106;8.702;2023-02-15T03:47:25;54.97;;;28.17;;
11054;SDS011;5580;50.106;8.702;2023-02-15T03:52:52;50.00;;;25.93;;
11054;SDS011;5580;50.106;8.702;2023-02-15T03:55:20;61.67;;;27.47;;
11054;SDS011;5580;50.106;8.702;2023-02-15T03:57:45;50.73;;;26.40;;
11054;SDS011;5580;50.106;8.702;2023-02-15T04:00:30;50.67;;;26.13;;
11054;SDS011;5580;50.106;8.702;2023-02-15T04:05:48;55.20;;;27.27;;
11054;SDS011;5580;50.106;8.702;2023-02-15T04:08:13;55.63;;;27.67;;
11054;SDS011;5580;50.106;8.702;2023-02-15T04:10:39;52.90;;;27.30;;
11054;SDS011;5580;50.106;8.702;2023-02-15T04:13:23;50.70;;;27.23;;
11054;SDS011;5580;50.106;8.702;2023-02-15T04:15:54;55.40;;;27.57;;
11054;SDS011;5580;50.106;8.702;2023-02-15T04:18:30;52.10;;;27.00;;
11054;SDS011;5580;50.106;8.702;2023-02-15T04:21:18;52.57;;;26.37;;
11054;SDS011;5580;50.106;8.702;2023-02-15T04:24:04;53.17;;;27.87;;
11054;SDS011;5580;50.106;8.702;2023-02-15T04:26:49;54.60;;;27.00;;
11054;SDS011;5580;50.106;8.702;2023-02-15T04:29:17;51.77;;;26.87;;
11054;SDS011;5580;50.106;8.702;2023-02-15T04:31:43;54.10;;;26.30;;
11054;SDS011;5580;50.106;8.702;2023-02-15T04:34:09;53.50;;;27.30;;
11054;SDS011;5580;50.106;8.702;2023-02-15T04:36:36;53.30;;;27.27;;
11054;SDS011;5580;50.106;8.702;2023-02-15T04:39:02;54.43;;;27.33;;
11054;SDS011;5580;50.106;8.702;2023-02-15T04:41:28;57.20;;;28.53;;
11054;SDS011;5580;50.106;8.702;2023-02-15T04:43:53;54.67;;;27.37;;
11054;SDS011;5580;50.106;8.702;2023-02-15T04:46:19;54.33;;;27.67;;
11054;SDS011;5580;50.106;8.702;2023-02-15T04:48:44;57.20;;;27.87;;
11054;SDS011;5580;50.106;8.702;2023-02-15T04:51:10;53.93;;;28.23;;
11054;SDS011;5580;50.106;8.702;2023-02-15T04:53:36;57.27;;;28.53;;
11054;SDS011;5580;50.106;8.702;2023-02-15T04:56:02;53.07;;;27.00;;
11054;SDS011;5580;50.106;8.702;2023-02-15T04:58:28;55.27;;;28.13;;
11054;SDS011;5580;50.106;8.702;2023-02-15T05:00:56;56.37;;;28.33;;
11054;SDS011;5580;50.106;8.702;2023-02-15T05:03:23;59.70;;;28.13;;
11054;SDS011;5580;50.106;8.702;2023-02-15T05:05:48;56.87;;;28.90;;
11054;SDS011;5580;50.106;8.702;2023-02-15T05:08:14;59.43;;;29.23;;
11054;SDS011;5580;50.106;8.702;2023-02-15T05:10:40;54.57;;;28.10;;
11054;SDS011;5580;50.106;8.702;2023-02-15T05:13:05;58.00;;;28.67;;
11054;SDS011;5580;50.106;8.702;2023-02-15T05:15:31;60.00;;;28.77;;
11054;SDS011;5580;50.106;8.702;2023-02-15T05:17:57;56.07;;;28.50;;
11054;SDS011;5580;50.106;8.702;2023-02-15T05:20:22;60.57;;;28.93;;
11054;SDS011;5580;50.106;8.702;2023-02-15T05:22:48;56.73;;;28.10;;
11054;SDS011;5580;50.106;8.702;2023-02-15T05:25:13;59.73;;;29.67;;
11054;SDS011;5580;50.106;8.702;2023-02-15T05:27:58;55.90;;;27.50;;
11054;SDS011;5580;50.106;8.702;2023-02-15T05:30:42;54.23;;;26.53;;
11054;SDS011;5580;50.106;8.702;2023-02-15T05:33:08;58.07;;;27.77;;
11054;SDS011;5580;50.106;8.702;2023-02-15T05:35:34;58.07;;;28.33;;
11054;SDS011;5580;50.106;8.702;2023-02-15T05:37:59;56.47;;;28.03;;
11054;SDS011;5580;50.106;8.702;2023-02-15T05:40:25;52.03;;;27.57;;
11054;SDS011;5580;50.106;8.702;2023-02-15T05:42:51;57.53;;;26.53;;
11054;SDS011;5580;50.106;8.702;2023-02-15T05:45:20;57.43;;;27.97;;
11054;SDS011;5580;50.106;8.702;2023-02-15T05:47:46;50.57;;;26.27;;
11054;SDS011;5580;50.106;8.702;2023-02-15T05:50:11;52.90;;;26.37;;
11054;SDS011;5580;50.106;8.702;2023-02-15T05:52:37;50.13;;;25.63;;
11054;SDS011;5580;50.106;8.702;2023-02-15T05:55:03;55.50;;;27.70;;
11054;SDS011;5580;50.106;8.702;2023-02-15T05:57:29;52.13;;;26.17;;
11054;SDS011;5580;50.106;8.702;2023-02-15T05:59:55;50.00;;;25.67;;
11054;SDS011;5580;50.106;8.702;2023-02-15T06:02:23;54.63;;;25.97;;
11054;SDS011;5580;50.106;8.702;2023-02-15T06:04:49;50.13;;;26.47;;
11054;SDS011;5580;50.106;8.702;2023-02-15T06:07:14;52.53;;;26.57;;
11054;SDS011;5580;50.106;8.702;2023-02-15T06:09:40;52.13;;;27.27;;
11054;SDS011;5580;50.106;8.702;2023-02-15T06:12:06;55.37;;;27.43;;
11054;SDS011;5580;50.106;8.702;2023-02-15T06:14:31;51.87;;;26.77;;
11054;SDS011;5580;50.106;8.702;2023-02-15T06:16:57;55.37;;;27.30;;
11054;SDS011;5580;50.106;8.702;2023-02-15T06:19:22;51.70;;;26.40;;
11054;SDS011;5580;50.106;8.702;2023-02-15T06:21:48;49.30;;;26.53;;
11054;SDS011;5580;50.106;8.702;2023-02-15T06:24:15;51.60;;;26.80;;
11054;SDS011;5580;50.106;8.702;2023-02-15T06:26:40;51.53;;;26.00;;
11054;SDS011;5580;50.106;8.702;2023-02-15T06:29:06;51.20;;;26.97;;
11054;SDS011;5580;50.106;8.702;2023-02-15T06:31:31;45.93;;;25.50;;
11054;SDS011;5580;50.106;8.702;2023-02-15T06:33:57;48.50;;;25.27;;
11054;SDS011;5580;50.106;8.702;2023-02-15T06:36:26;48.07;;;24.00;;
11054;SDS011;5580;50.106;8.702;2023-02-15T06:38:53;50.00;;;24.53;;
11054;SDS011;5580;50.106;8.702;2023-02-15T06:41:19;47.03;;;24.43;;
11054;SDS011;5580;50.106;8.702;2023-02-15T06:43:45;49.07;;;24.30;;
11054;SDS011;5580;50.106;8.702;2023-02-15T06:46:10;45.30;;;24.47;;
11054;SDS011;5580;50.106;8.702;2023-02-15T06:48:36;46.37;;;24.43;;
11054;SDS011;5580;50.106;8.702;2023-02-15T06:51:01;50.00;;;25.90;;
11054;SDS011;5580;50.106;8.702;2023-02-15T06:53:27;44.90;;;24.77;;
11054;SDS011;5580;50.106;8.702;2023-02-15T06:55:53;47.90;;;25.27;;
11054;SDS011;5580;50.106;8.702;2023-02-15T06:58:27;44.37;;;24.13;;
11054;SDS011;5580;50.106;8.702;2023-02-15T07:00:53;52.53;;;26.27;;
11054;SDS011;5580;50.106;8.702;2023-02-15T07:03:18;47.70;;;24.90;;
11054;SDS011;5580;50.106;8.702;2023-02-15T07:05:44;49.20;;;25.13;;
11054;SDS011;5580;50.106;8.702;2023-02-15T07:08:10;49.67;;;25.97;;
11054;SDS011;5580;50.106;8.702;2023-02-15T07:10:36;44.20;;;24.23;;
11054;SDS011;5580;50.106;8.702;2023-02-15T07:13:01;44.80;;;23.80;;
11054;SDS011;5580;50.106;8.702;2023-02-15T07:15:27;46.87;;;25.23;;
11054;SDS011;5580;50.106;8.702;2023-02-15T07:17:52;45.13;;;23.73;;
11054;SDS011;5580;50.106;8.702;2023-02-15T07:20:19;51.27;;;25.17;;
11054;SDS011;5580;50.106;8.702;2023-02-15T07:22:46;50.60;;;24.93;;
11054;SDS011;5580;50.106;8.702;2023-02-15T07:25:12;49.60;;;25.20;;
11054;SDS011;5580;50.106;8.702;2023-02-15T07:27:38;49.37;;;25.27;;
11054;SDS011;5580;50.106;8.702;2023-02-15T07:30:05;48.67;;;24.67;;
11054;SDS011;5580;50.106;8.702;2023-02-15T07:32:32;52.70;;;25.03;;
11054;SDS011;5580;50.106;8.702;2023-02-15T07:34:58;48.73;;;25.47;;
11054;SDS011;5580;50.106;8.702;2023-02-15T07:37:24;48.20;;;25.67;;
11054;SDS011;5580;50.106;8.702;2023-02-15T07:39:51;50.30;;;24.47;;
11054;SDS011;5580;50.106;8.702;2023-02-15T07:42:16;44.03;;;23.33;;
11054;SDS011;5580;50.106;8.702;2023-02-15T07:44:44;45.40;;;23.57;;
11054;SDS011;5580;50.106;8.702;2023-02-15T07:47:10;47.43;;;23.30;;
11054;SDS011;5580;50.106;8.702;2023-02-15T07:49:36;39.00;;;21.67;;
11054;SDS011;5580;50.106;8.702;2023-02-15T07:52:05;40.13;;;21.60;;
11054;SDS011;5580;50.106;8.702;2023-02-15T07:54:31;43.40;;;23.07;;
11054;SDS011;5580;50.106;8.702;2023-02-15T07:56:56;43.60;;;22.17;;
11054;SDS011;5580;50.106;8.702;2023-02-15T07:59:22;38.20;;;21.77;;
11054;SDS011;5580;50.106;8.702;2023-02-15T08:01:48;39.47;;;21.27;;
11054;SDS011;5580;50.106;8.702;2023-02-15T08:04:14;37.23;;;21.07;;
11054;SDS011;5580;50.106;8.702;2023-02-15T08:06:40;38.37;;;20.20;;
11054;SDS011;5580;50.106;8.702;2023-02-15T08:09:06;35.33;;;20.00;;
11054;SDS011;5580;50.106;8.702;2023-02-15T08:11:34;33.30;;;18.63;;
11054;SDS011;5580;50.106;8.702;2023-02-15T08:16:51;34.73;;;19.60;;
11054;SDS011;5580;50.106;8.702;2023-02-15T08:21:49;31.40;;;18.53;;
11054;SDS011;5580;50.106;8.702;2023-02-15T08:24:19;33.50;;;19.50;;
11054;SDS011;5580;50.106;8.702;2023-02-15T08:26:46;35.20;;;19.37;;
11054;SDS011;5580;50.106;8.702;2023-02-15T08:29:13;32.73;;;18.40;;
11054;SDS011;5580;50.106;8.702;2023-02-15T08:31:39;31.73;;;17.77;;
11054;SDS011;5580;50.106;8.702;2023-02-15T08:34:06;33.43;;;18.73;;
11054;SDS011;5580;50.106;8.702;2023-02-15T08:36:33;33.70;;;18.40;;
11054;SDS011;5580;50.106;8.702;2023-02-15T08:38:59;32.20;;;18.20;;
11054;SDS011;5580;50.106;8.702;2023-02-15T08:41:27;30.23;;;17.30;;
11054;SDS011;5580;50.106;8.702;2023-02-15T08:43:56;30.27;;;16.97;;
11054;SDS011;5580;50.106;8.702;2023-02-15T08:46:25;29.87;;;17.10;;
11054;SDS011;5580;50.106;8.702;2023-02-15T08:48:52;30.10;;;17.33;;
11054;SDS011;5580;50.106;8.702;2023-02-15T08:51:28;28.07;;;16.77;;
11054;SDS011;5580;50.106;8.702;2023-02-15T08:53:56;27.83;;;16.47;;
11054;SDS011;5580;50.106;8.702;2023-02-15T08:56:24;26.53;;;16.27;;
11054;SDS011;5580;50.106;8.702;2023-02-15T08:58:52;28.63;;;16.00;;
11054;SDS011;5580;50.106;8.702;2023-02-15T09:01:28;27.73;;;15.77;;
11054;SDS011;5580;50.106;8.702;2023-02-15T09:03:56;26.67;;;15.53;;
11054;SDS011;5580;50.106;8.702;2023-02-15T09:06:25;26.60;;;15.50;;
11054;SDS011;5580;50.106;8.702;2023-02-15T09:08:51;26.27;;;15.40;;
11054;SDS011;5580;50.106;8.702;2023-02-15T09:11:19;26.40;;;15.37;;
11054;SDS011;5580;50.106;8.702;2023-02-15T09:16:22;26.10;;;14.60;;
11054;SDS011;5580;50.106;8.702;2023-02-15T09:18:49;25.20;;;14.73;;
11054;SDS011;5580;50.106;8.702;2023-02-15T09:21:17;25.27;;;15.27;;
11054;SDS011;5580;50.106;8.702;2023-02-15T09:23:45;27.47;;;15.60;;
11054;SDS011;5580;50.106;8.702;2023-02-15T09:26:13;26.43;;;16.03;;
11054;SDS011;5580;50.106;8.702;2023-02-15T09:28:41;24.30;;;14.57;;
11054;SDS011;5580;50.106;8.702;2023-02-15T09:31:16;25.60;;;15.10;;
11054;SDS011;5580;50.106;8.702;2023-02-15T09:33:44;25.47;;;14.77;;
11054;SDS011;5580;50.106;8.702;2023-02-15T09:36:18;24.93;;;14.77;;
11054;SDS011;5580;50.106;8.702;2023-02-15T09:38:45;24.90;;;14.47;;
11054;SDS011;5580;50.106;8.702;2023-02-15T09:51:52;23.70;;;14.53;;
11054;SDS011;5580;50.106;8.702;2023-02-15T09:57:27;25.57;;;14.73;;
11054;SDS011;5580;50.106;8.702;2023-02-15T10:18:55;27.80;;;16.43;;
11054;SDS011;5580;50.106;8.702;2023-02-15T10:21:33;28.07;;;16.80;;
11054;SDS011;5580;50.106;8.702;2023-02-15T10:24:25;28.97;;;17.07;;
11054;SDS011;5580;50.106;8.702;2023-02-15T10:27:01;29.43;;;16.97;;
11054;SDS011;5580;50.106;8.702;2023-02-15T10:29:37;28.30;;;16.77;;
11054;SDS011;5580;50.106;8.702;2023-02-15T10:32:14;29.13;;;17.57;;
11054;SDS011;5580;50.106;8.702;2023-02-15T10:51:29;28.07;;;16.07;;
11054;SDS011;5580;50.106;8.702;2023-02-15T10:54:14;29.50;;;17.40;;
11054;SDS011;5580;50.106;8.702;2023-02-15T11:06:01;32.27;;;16.83;;
11054;SDS011;5580;50.106;8.702;2023-02-15T11:08:14;26.63;;;16.40;;
11054;SDS011;5580;50.106;8.702;2023-02-15T11:11:02;29.97;;;16.53;;
11054;SDS011;5580;50.106;8.702;2023-02-15T11:13:32;30.87;;;17.60;;
11054;SDS011;5580;50.106;8.702;2023-02-15T11:16:05;30.83;;;18.17;;
11054;SDS011;5580;50.106;8.702;2023-02-15T11:18:48;31.80;;;17.67;;
11054;SDS011;5580;50.106;8.702;2023-02-15T11:21:24;33.97;;;19.37;;
11054;SDS011;5580;50.106;8.702;2023-02-15T11:23:53;32.73;;;18.27;;
11054;SDS011;5580;50.106;8.702;2023-02-15T11:29:17;32.53;;;18.83;;
11054;SDS011;5580;50.106;8.702;2023-02-15T11:31:55;37.63;;;20.70;;
11054;SDS011;5580;50.106;8.702;2023-02-15T11:34:29;38.17;;;20.07;;
11054;SDS011;5580;50.106;8.702;2023-02-15T11:37:03;38.37;;;21.60;;
11054;SDS011;5580;50.106;8.702;2023-02-15T11:39:32;39.77;;;22.83;;
11054;SDS011;5580;50.106;8.702;2023-02-15T11:42:01;44.30;;;24.60;;
11054;SDS011;5580;50.106;8.702;2023-02-15T11:44:35;44.20;;;24.57;;
11054;SDS011;5580;50.106;8.702;2023-02-15T11:47:07;42.93;;;23.90;;
11054;SDS011;5580;50.106;8.702;2023-02-15T11:49:36;48.90;;;25.57;;
11054;SDS011;5580;50.106;8.702;2023-02-15T11:52:07;41.50;;;23.80;;
11054;SDS011;5580;50.106;8.702;2023-02-15T11:54:45;43.97;;;24.43;;
11054;SDS011;5580;50.106;8.702;2023-02-15T12:00:09;44.17;;;23.80;;
11054;SDS011;5580;50.106;8.702;2023-02-15T12:02:38;44.03;;;24.90;;
11054;SDS011;5580;50.106;8.702;2023-02-15T12:05:14;44.80;;;24.60;;
11054;SDS011;5580;50.106;8.702;2023-02-15T12:10:30;41.30;;;23.13;;
11054;SDS011;5580;50.106;8.702;2023-02-15T12:13:11;42.40;;;24.17;;
11054;SDS011;5580;50.106;8.702;2023-02-15T12:15:45;45.80;;;24.77;;
11054;SDS011;5580;50.106;8.702;2023-02-15T12:18:31;43.13;;;24.33;;
11054;SDS011;5580;50.106;8.702;2023-02-15T12:21:08;46.97;;;25.17;;
11054;SDS011;5580;50.106;8.702;2023-02-15T12:23:47;45.93;;;25.23;;
11054;SDS011;5580;50.106;8.702;2023-02-15T12:26:23;50.10;;;26.93;;
11054;SDS011;5580;50.106;8.702;2023-02-15T12:28:53;46.43;;;25.30;;
11054;SDS011;5580;50.106;8.702;2023-02-15T12:31:24;47.63;;;25.53;;
11054;SDS011;5580;50.106;8.702;2023-02-15T12:34:02;48.50;;;25.73;;
11054;SDS011;5580;50.106;8.702;2023-02-15T12:36:44;48.13;;;25.83;;
11054;SDS011;5580;50.106;8.702;2023-02-15T12:41:56;46.57;;;26.13;;
11054;SDS011;5580;50.106;8.702;2023-02-15T12:44:28;45.63;;;25.47;;
11054;SDS011;5580;50.106;8.702;2023-02-15T12:47:00;52.07;;;27.07;;
11054;SDS011;5580;50.106;8.702;2023-02-15T12:49:26;50.07;;;26.77;;
11054;SDS011;5580;50.106;8.702;2023-02-15T12:51:57;49.10;;;26.17;;
11054;SDS011;5580;50.106;8.702;2023-02-15T12:56:58;52.30;;;28.43;;
11054;SDS011;5580;50.106;8.702;2023-02-15T12:59:24;50.80;;;28.10;;
11054;SDS011;5580;50.106;8.702;2023-02-15T13:01:53;49.13;;;27.00;;
11054;SDS011;5580;50.106;8.702;2023-02-15T13:04:24;55.77;;;28.73;;
11054;SDS011;5580;50.106;8.702;2023-02-15T13:06:52;49.87;;;27.50;;
11054;SDS011;5580;50.106;8.702;2023-02-15T13:09:44;54.47;;;30.73;;
11054;SDS011;5580;50.106;8.702;2023-02-15T13:12:26;52.37;;;29.00;;
11054;SDS011;5580;50.106;8.702;2023-02-15T13:14:55;54.20;;;29.03;;
11054;SDS011;5580;50.106;8.702;2023-02-15T13:17:26;55.73;;;30.13;;
11054;SDS011;5580;50.106;8.702;2023-02-15T13:19:55;55.23;;;30.17;;
11054;SDS011;5580;50.106;8.702;2023-02-15T13:22:38;56.97;;;31.63;;
11054;SDS011;5580;50.106;8.702;2023-02-15T13:25:21;60.00;;;30.33;;
11054;SDS011;5580;50.106;8.702;2023-02-15T13:27:51;57.37;;;31.67;;
11054;SDS011;5580;50.106;8.702;2023-02-15T13:33:11;59.13;;;31.00;;
11054;SDS011;5580;50.106;8.702;2023-02-15T13:36:17;53.67;;;29.30;;
11054;SDS011;5580;50.106;8.702;2023-02-15T13:44:25;54.13;;;29.97;;
11054;SDS011;5580;50.106;8.702;2023-02-15T13:52:53;55.80;;;30.93;;
11054;SDS011;5580;50.106;8.702;2023-02-15T13:58:47;58.83;;;30.90;;
11054;SDS011;5580;50.106;8.702;2023-02-15T14:01:39;57.43;;;31.70;;
11054;SDS011;5580;50.106;8.702;2023-02-15T14:20:19;59.27;;;32.07;;
11054;SDS011;5580;50.106;8.702;2023-02-15T14:26:47;63.50;;;32.63;;
11054;SDS011;5580;50.106;8.702;2023-02-15T14:29:26;59.20;;;33.17;;
11054;SDS011;5580;50.106;8.702;2023-02-15T14:31:55;59.83;;;32.13;;
11054;SDS011;5580;50.106;8.702;2023-02-15T14:40:19;60.23;;;32.80;;
11054;SDS011;5580;50.106;8.702;2023-02-15T14:48:52;66.87;;;34.13;;
11054;SDS011;5580;50.106;8.702;2023-02-15T14:54:52;59.17;;;31.00;;
11054;SDS011;5580;50.106;8.702;2023-02-15T14:59:36;63.83;;;33.90;;
11054;SDS011;5580;50.106;8.702;2023-02-15T15:07:14;64.20;;;32.23;;
11054;SDS011;5580;50.106;8.702;2023-02-15T15:09:57;62.80;;;31.47;;
11054;SDS011;5580;50.106;8.702;2023-02-15T15:14:51;61.57;;;31.03;;
11054;SDS011;5580;50.106;8.702;2023-02-15T15:17:53;61.47;;;31.50;;
11054;SDS011;5580;50.106;8.702;2023-02-15T15:22:50;58.33;;;31.00;;
11054;SDS011;5580;50.106;8.702;2023-02-15T15:25:49;57.97;;;31.07;;
11054;SDS011;5580;50.106;8.702;2023-02-15T15:33:52;65.37;;;33.23;;
11054;SDS011;5580;50.106;8.702;2023-02-15T15:36:45;61.20;;;32.30;;
11054;SDS011;5580;50.106;8.702;2023-02-15T15:39:39;63.23;;;32.03;;
11054;SDS011;5580;50.106;8.702;2023-02-15T15:50:15;65.97;;;34.27;;
11054;SDS011;5580;50.106;8.702;2023-02-15T15:52:50;68.13;;;34.00;;
11054;SDS011;5580;50.106;8.702;2023-02-15T15:55:22;64.20;;;33.73;;
11054;SDS011;5580;50.106;8.702;2023-02-15T15:57:53;65.53;;;34.13;;
11054;SDS011;5580;50.106;8.702;2023-02-15T16:03:25;67.80;;;34.27;;
11054;SDS011;5580;50.106;8.702;2023-02-15T16:05:52;67.13;;;34.33;;
11054;SDS011;5580;50.106;8.702;2023-02-15T16:08:30;67.17;;;35.27;;
11054;SDS011;5580;50.106;8.702;2023-02-15T16:10:58;67.43;;;35.33;;
11054;SDS011;5580;50.106;8.702;2023-02-15T16:13:25;65.27;;;35.43;;
11054;SDS011;5580;50.106;8.702;2023-02-15T16:15:52;69.90;;;34.17;;
11054;SDS011;5580;50.106;8.702;2023-02-15T16:18:21;69.70;;;35.40;;
11054;SDS011;5580;50.106;8.702;2023-02-15T16:20:51;70.77;;;34.63;;
11054;SDS011;5580;50.106;8.702;2023-02-15T16:23:31;65.53;;;35.30;;
11054;SDS011;5580;50.106;8.702;2023-02-15T16:29:00;65.67;;;33.53;;
11054;SDS011;5580;50.106;8.702;2023-02-15T16:31:26;71.90;;;36.13;;
11054;SDS011;5580;50.106;8.702;2023-02-15T16:33:52;66.60;;;34.53;;
11054;SDS011;5580;50.106;8.702;2023-02-15T16:41:11;70.73;;;35.77;;
11054;SDS011;5580;50.106;8.702;2023-02-15T16:43:43;66.23;;;35.57;;
11054;SDS011;5580;50.106;8.702;2023-02-15T16:46:11;68.30;;;35.97;;
11054;SDS011;5580;50.106;8.702;2023-02-15T16:48:52;71.23;;;36.97;;
11054;SDS011;5580;50.106;8.702;2023-02-15T16:51:21;71.00;;;36.90;;
11054;SDS011;5580;50.106;8.702;2023-02-15T16:53:49;70.27;;;36.83;;
11054;SDS011;5580;50.106;8.702;2023-02-15T16:56:21;75.80;;;38.33;;
11054;SDS011;5580;50.106;8.702;2023-02-15T16:58:57;71.30;;;38.67;;
11054;SDS011;5580;50.106;8.702;2023-02-15T17:01:26;74.97;;;38.37;;
11054;SDS011;5580;50.106;8.702;2023-02-15T17:04:11;76.67;;;40.43;;
11054;SDS011;5580;50.106;8.702;2023-02-15T17:09:37;72.00;;;37.77;;
11054;SDS011;5580;50.106;8.702;2023-02-15T17:15:28;75.37;;;38.97;;
11054;SDS011;5580;50.106;8.702;2023-02-15T17:18:01;70.53;;;37.27;;
11054;SDS011;5580;50.106;8.702;2023-02-15T17:20:38;71.73;;;37.63;;
11054;SDS011;5580;50.106;8.702;2023-02-15T17:23:06;74.33;;;38.03;;
11054;SDS011;5580;50.106;8.702;2023-02-15T17:25:45;68.37;;;37.87;;
11054;SDS011;5580;50.106;8.702;2023-02-15T17:28:15;65.70;;;36.10;;
11054;SDS011;5580;50.106;8.702;2023-02-15T17:30:46;68.47;;;37.50;;
11054;SDS011;5580;50.106;8.702;2023-02-15T17:33:24;65.70;;;37.07;;
11054;SDS011;5580;50.106;8.702;2023-02-15T17:38:37;65.30;;;35.47;;
11054;SDS011;5580;50.106;8.702;2023-02-15T17:41:04;66.67;;;37.63;;
11054;SDS011;5580;50.106;8.702;2023-02-15T17:43:30;67.93;;;37.20;;
11054;SDS011;5580;50.106;8.702;2023-02-15T17:45:56;67.17;;;37.77;;
11054;SDS011;5580;50.106;8.702;2023-02-15T17:48:24;67.30;;;36.67;;
11054;SDS011;5580;50.106;8.702;2023-02-15T17:50:55;67.30;;;38.17;;
11054;SDS011;5580;50.106;8.702;2023-02-15T17:53:22;72.30;;;38.60;;
11054;SDS011;5580;50.106;8.702;2023-02-15T17:55:49;69.83;;;38.40;;
11054;SDS011;5580;50.106;8.702;2023-02-15T17:58:16;70.60;;;39.03;;
11054;SDS011;5580;50.106;8.702;2023-02-15T18:00:50;73.13;;;40.00;;
11054;SDS011;5580;50.106;8.702;2023-02-15T18:03:46;71.07;;;38.53;;
11054;SDS011;5580;50.106;8.702;2023-02-15T18:06:32;73.33;;;40.27;;
11054;SDS011;5580;50.106;8.702;2023-02-15T18:09:19;73.80;;;39.00;;
11054;SDS011;5580;50.106;8.702;2023-02-15T18:12:17;76.10;;;41.37;;
11054;SDS011;5580;50.106;8.702;2023-02-15T18:14:45;75.40;;;40.60;;
11054;SDS011;5580;50.106;8.702;2023-02-15T18:17:11;72.83;;;39.07;;
11054;SDS011;5580;50.106;8.702;2023-02-15T18:19:38;67.90;;;38.57;;
11054;SDS011;5580;50.106;8.702;2023-02-15T18:22:16;66.73;;;38.93;;
11054;SDS011;5580;50.106;8.702;2023-02-15T18:24:44;71.33;;;40.00;;
11054;SDS011;5580;50.106;8.702;2023-02-15T18:27:11;67.47;;;37.60;;